sensor_id;sensor_type;location;lat;lon;timestamp;temperature;humidity
68109;SHT30;54893;49.864;19.084;2023-08-24T00:04:24;16.69;97.20
68109;SHT30;54893;49.864;19.084;2023-08-24T00:09:24;16.69;96.29
68109;SHT30;54893;49.864;19.084;2023-08-24T00:14:25;16.69;96.42
68109;SHT30;54893;49.864;19.084;2023-08-24T00:19:25;16.65;96.72
68109;SHT30;54893;49.864;19.084;2023-08-24T00:24:25;16.62;96.67
68109;SHT30;54893;49.864;19.084;2023-08-24T00:29:26;16.56;96.73
68109;SHT30;54893;49.864;19.084;2023-08-24T00:34:26;16.58;96.93
68109;SHT30;54893;49.864;19.084;2023-08-24T00:39:26;16.55;96.85
68109;SHT30;54893;49.864;19.084;2023-08-24T00:44:27;16.61;96.73
68109;SHT30;54893;49.864;19.084;2023-08-24T00:49:27;16.49;98.10
68109;SHT30;54893;49.864;19.084;2023-08-24T00:54:28;16.35;99.06
68109;SHT30;54893;49.864;19.084;2023-08-24T00:59:28;16.26;98.39
68109;SHT30;54893;49.864;19.084;2023-08-24T01:04:28;16.21;97.51
68109;SHT30;54893;49.864;19.084;2023-08-24T01:09:29;16.15;98.07
68109;SHT30;54893;49.864;19.084;2023-08-24T01:14:51;16.19;98.21
68109;SHT30;54893;49.864;19.084;2023-08-24T01:19:54;16.07;99.02
68109;SHT30;54893;49.864;19.084;2023-08-24T01:25:12;15.95;99.88
68109;SHT30;54893;49.864;19.084;2023-08-24T01:30:16;15.91;99.61
68109;SHT30;54893;49.864;19.084;2023-08-24T01:35:17;15.81;98.72
68109;SHT30;54893;49.864;19.084;2023-08-24T01:45:34;15.70;99.99
68109;SHT30;54893;49.864;19.084;2023-08-24T01:50:35;15.51;99.99
68109;SHT30;54893;49.864;19.084;2023-08-24T01:55:36;15.34;99.99
68109;SHT30;54893;49.864;19.084;2023-08-24T02:00:36;15.20;99.99
68109;SHT30;54893;49.864;19.084;2023-08-24T02:05:36;15.20;99.99
68109;SHT30;54893;49.864;19.084;2023-08-24T02:10:37;15.16;99.99
68109;SHT30;54893;49.864;19.084;2023-08-24T02:15:38;15.02;99.99
68109;SHT30;54893;49.864;19.084;2023-08-24T02:20:41;15.09;99.99
68109;SHT30;54893;49.864;19.084;2023-08-24T02:25:42;15.17;99.99
68109;SHT30;54893;49.864;19.084;2023-08-24T02:30:42;15.11;99.99
68109;SHT30;54893;49.864;19.084;2023-08-24T02:35:43;14.99;99.99
68109;SHT30;54893;49.864;19.084;2023-08-24T02:40:44;14.93;99.99
68109;SHT30;54893;49.864;19.084;2023-08-24T02:45:45;14.83;99.99
68109;SHT30;54893;49.864;19.084;2023-08-24T02:50:46;14.75;99.99
68109;SHT30;54893;49.864;19.084;2023-08-24T02:55:47;14.79;99.99
68109;SHT30;54893;49.864;19.084;2023-08-24T03:00:48;14.72;99.99
68109;SHT30;54893;49.864;19.084;2023-08-24T03:05:58;14.69;99.99
68109;SHT30;54893;49.864;19.084;2023-08-24T03:11:00;14.65;99.99
68109;SHT30;54893;49.864;19.084;2023-08-24T03:16:04;14.71;99.99
68109;SHT30;54893;49.864;19.084;2023-08-24T03:21:05;14.79;99.31
68109;SHT30;54893;49.864;19.084;2023-08-24T03:26:05;14.80;99.00
68109;SHT30;54893;49.864;19.084;2023-08-24T03:31:06;14.75;99.33
68109;SHT30;54893;49.864;19.084;2023-08-24T03:36:06;14.73;98.67
68109;SHT30;54893;49.864;19.084;2023-08-24T03:41:07;14.76;99.08
68109;SHT30;54893;49.864;19.084;2023-08-24T03:46:07;14.72;99.08
68109;SHT30;54893;49.864;19.084;2023-08-24T03:51:08;14.77;98.89
68109;SHT30;54893;49.864;19.084;2023-08-24T03:56:08;14.79;98.85
68109;SHT30;54893;49.864;19.084;2023-08-24T04:01:11;14.85;99.17
68109;SHT30;54893;49.864;19.084;2023-08-24T04:06:12;14.89;99.23
68109;SHT30;54893;49.864;19.084;2023-08-24T04:11:12;14.99;99.99
68109;SHT30;54893;49.864;19.084;2023-08-24T04:16:13;15.06;99.89
68109;SHT30;54893;49.864;19.084;2023-08-24T04:21:13;15.20;99.51
68109;SHT30;54893;49.864;19.084;2023-08-24T04:26:13;15.34;99.16
68109;SHT30;54893;49.864;19.084;2023-08-24T04:31:14;15.54;99.99
68109;SHT30;54893;49.864;19.084;2023-08-24T04:36:14;15.71;99.73
68109;SHT30;54893;49.864;19.084;2023-08-24T04:41:15;15.90;99.71
68109;SHT30;54893;49.864;19.084;2023-08-24T04:46:15;16.09;99.14
68109;SHT30;54893;49.864;19.084;2023-08-24T04:51:16;16.36;98.85
68109;SHT30;54893;49.864;19.084;2023-08-24T04:56:17;16.59;98.34
68109;SHT30;54893;49.864;19.084;2023-08-24T05:01:19;17.02;98.03
68109;SHT30;54893;49.864;19.084;2023-08-24T05:06:20;17.23;97.29
68109;SHT30;54893;49.864;19.084;2023-08-24T05:11:23;17.60;96.56
68109;SHT30;54893;49.864;19.084;2023-08-24T05:16:26;17.88;96.25
68109;SHT30;54893;49.864;19.084;2023-08-24T05:21:28;18.00;95.68
68109;SHT30;54893;49.864;19.084;2023-08-24T05:26:28;18.52;94.58
68109;SHT30;54893;49.864;19.084;2023-08-24T05:31:28;18.75;93.69
68109;SHT30;54893;49.864;19.084;2023-08-24T05:36:29;18.93;93.51
68109;SHT30;54893;49.864;19.084;2023-08-24T05:41:29;19.26;92.93
68109;SHT30;54893;49.864;19.084;2023-08-24T05:46:29;19.41;92.35
68109;SHT30;54893;49.864;19.084;2023-08-24T05:51:29;19.82;91.23
68109;SHT30;54893;49.864;19.084;2023-08-24T05:56:30;20.26;90.50
68109;SHT30;54893;49.864;19.084;2023-08-24T06:01:30;20.29;90.14
68109;SHT30;54893;49.864;19.084;2023-08-24T06:06:31;20.59;89.27
68109;SHT30;54893;49.864;19.084;2023-08-24T06:11:34;20.73;88.69
68109;SHT30;54893;49.864;19.084;2023-08-24T06:16:34;21.16;87.88
68109;SHT30;54893;49.864;19.084;2023-08-24T06:21:35;21.36;87.18
68109;SHT30;54893;49.864;19.084;2023-08-24T06:26:35;21.56;86.03
68109;SHT30;54893;49.864;19.084;2023-08-24T06:31:35;21.66;84.95
68109;SHT30;54893;49.864;19.084;2023-08-24T06:36:35;22.21;83.86
68109;SHT30;54893;49.864;19.084;2023-08-24T06:41:36;22.44;82.44
68109;SHT30;54893;49.864;19.084;2023-08-24T06:46:36;22.54;79.62
68109;SHT30;54893;49.864;19.084;2023-08-24T06:51:37;22.73;79.91
68109;SHT30;54893;49.864;19.084;2023-08-24T06:56:37;22.81;78.23
68109;SHT30;54893;49.864;19.084;2023-08-24T07:01:37;23.24;77.64
68109;SHT30;54893;49.864;19.084;2023-08-24T07:06:38;23.54;77.74
68109;SHT30;54893;49.864;19.084;2023-08-24T07:11:38;23.60;77.04
68109;SHT30;54893;49.864;19.084;2023-08-24T07:16:38;23.97;77.54
68109;SHT30;54893;49.864;19.084;2023-08-24T07:21:39;23.94;76.82
68109;SHT30;54893;49.864;19.084;2023-08-24T07:26:40;24.03;76.00
68109;SHT30;54893;49.864;19.084;2023-08-24T07:31:42;24.42;76.43
68109;SHT30;54893;49.864;19.084;2023-08-24T07:36:43;24.64;74.52
68109;SHT30;54893;49.864;19.084;2023-08-24T07:41:45;24.71;73.22
68109;SHT30;54893;49.864;19.084;2023-08-24T07:46:47;24.89;70.20
68109;SHT30;54893;49.864;19.084;2023-08-24T07:51:47;24.95;69.66
68109;SHT30;54893;49.864;19.084;2023-08-24T07:56:48;25.19;69.13
68109;SHT30;54893;49.864;19.084;2023-08-24T08:01:48;25.22;66.48
68109;SHT30;54893;49.864;19.084;2023-08-24T08:06:48;25.14;66.17
68109;SHT30;54893;49.864;19.084;2023-08-24T08:11:48;25.35;67.46
68109;SHT30;54893;49.864;19.084;2023-08-24T08:16:49;25.53;67.40
68109;SHT30;54893;49.864;19.084;2023-08-24T08:21:50;24.69;65.79
68109;SHT30;54893;49.864;19.084;2023-08-24T08:26:50;25.63;66.69
68109;SHT30;54893;49.864;19.084;2023-08-24T08:31:50;25.79;63.89
68109;SHT30;54893;49.864;19.084;2023-08-24T08:36:51;26.00;61.91
68109;SHT30;54893;49.864;19.084;2023-08-24T08:41:51;25.97;62.10
68109;SHT30;54893;49.864;19.084;2023-08-24T08:46:52;26.24;62.52
68109;SHT30;54893;49.864;19.084;2023-08-24T08:51:52;25.54;63.96
68109;SHT30;54893;49.864;19.084;2023-08-24T08:56:53;26.37;61.98
68109;SHT30;54893;49.864;19.084;2023-08-24T09:01:58;26.60;61.14
68109;SHT30;54893;49.864;19.084;2023-08-24T09:07:01;26.07;59.83
68109;SHT30;54893;49.864;19.084;2023-08-24T09:12:05;26.64;60.87
68109;SHT30;54893;49.864;19.084;2023-08-24T09:17:06;26.81;56.90
68109;SHT30;54893;49.864;19.084;2023-08-24T09:22:07;26.00;52.42
68109;SHT30;54893;49.864;19.084;2023-08-24T09:27:18;26.43;53.71
68109;SHT30;54893;49.864;19.084;2023-08-24T09:32:30;26.81;55.33
68109;SHT30;54893;49.864;19.084;2023-08-24T09:37:35;26.38;54.57
68109;SHT30;54893;49.864;19.084;2023-08-24T09:42:40;26.75;55.29
68109;SHT30;54893;49.864;19.084;2023-08-24T09:47:46;27.01;55.83
68109;SHT30;54893;49.864;19.084;2023-08-24T09:52:47;27.11;55.47
68109;SHT30;54893;49.864;19.084;2023-08-24T09:57:52;27.06;55.25
68109;SHT30;54893;49.864;19.084;2023-08-24T10:02:54;27.05;54.26
68109;SHT30;54893;49.864;19.084;2023-08-24T10:07:56;26.77;49.78
68109;SHT30;54893;49.864;19.084;2023-08-24T10:13:00;26.00;54.31
68109;SHT30;54893;49.864;19.084;2023-08-24T10:18:05;26.71;52.85
68109;SHT30;54893;49.864;19.084;2023-08-24T10:23:06;27.93;53.95
68109;SHT30;54893;49.864;19.084;2023-08-24T10:28:07;28.20;54.23
68109;SHT30;54893;49.864;19.084;2023-08-24T10:33:08;27.38;55.02
68109;SHT30;54893;49.864;19.084;2023-08-24T10:38:08;27.14;53.31
68109;SHT30;54893;49.864;19.084;2023-08-24T10:43:09;27.29;53.39
68109;SHT30;54893;49.864;19.084;2023-08-24T10:48:10;27.39;53.13
68109;SHT30;54893;49.864;19.084;2023-08-24T10:53:37;27.41;51.68
68109;SHT30;54893;49.864;19.084;2023-08-24T10:58:37;28.00;51.70
68109;SHT30;54893;49.864;19.084;2023-08-24T11:03:38;28.09;54.41
68109;SHT30;54893;49.864;19.084;2023-08-24T11:08:45;27.82;53.77
68109;SHT30;54893;49.864;19.084;2023-08-24T11:14:17;27.52;54.64
68109;SHT30;54893;49.864;19.084;2023-08-24T11:19:19;27.62;53.38
68109;SHT30;54893;49.864;19.084;2023-08-24T11:24:20;27.28;54.70
68109;SHT30;54893;49.864;19.084;2023-08-24T11:29:20;26.64;55.51
68109;SHT30;54893;49.864;19.084;2023-08-24T11:34:20;27.46;54.41
68109;SHT30;54893;49.864;19.084;2023-08-24T11:39:22;27.48;53.24
68109;SHT30;54893;49.864;19.084;2023-08-24T11:44:24;27.63;53.66
68109;SHT30;54893;49.864;19.084;2023-08-24T11:49:25;26.91;53.07
68109;SHT30;54893;49.864;19.084;2023-08-24T11:54:25;27.50;53.47
68109;SHT30;54893;49.864;19.084;2023-08-24T11:59:26;27.24;52.08
68109;SHT30;54893;49.864;19.084;2023-08-24T12:04:26;27.12;51.11
68109;SHT30;54893;49.864;19.084;2023-08-24T12:09:29;27.32;53.89
68109;SHT30;54893;49.864;19.084;2023-08-24T12:14:41;27.66;52.87
68109;SHT30;54893;49.864;19.084;2023-08-24T12:19:45;27.35;53.28
68109;SHT30;54893;49.864;19.084;2023-08-24T12:24:46;27.19;52.92
68109;SHT30;54893;49.864;19.084;2023-08-24T12:29:47;27.82;52.21
68109;SHT30;54893;49.864;19.084;2023-08-24T12:34:47;27.71;52.04
68109;SHT30;54893;49.864;19.084;2023-08-24T12:39:47;27.70;52.45
68109;SHT30;54893;49.864;19.084;2023-08-24T12:44:48;27.22;51.85
68109;SHT30;54893;49.864;19.084;2023-08-24T12:49:49;27.11;50.15
68109;SHT30;54893;49.864;19.084;2023-08-24T12:54:50;26.98;51.91
68109;SHT30;54893;49.864;19.084;2023-08-24T12:59:51;27.25;52.34
68109;SHT30;54893;49.864;19.084;2023-08-24T13:04:52;27.50;50.18
68109;SHT30;54893;49.864;19.084;2023-08-24T13:09:52;27.99;52.22
68109;SHT30;54893;49.864;19.084;2023-08-24T13:14:52;27.69;51.41
68109;SHT30;54893;49.864;19.084;2023-08-24T13:19:52;27.38;52.71
68109;SHT30;54893;49.864;19.084;2023-08-24T13:24:53;27.83;51.10
68109;SHT30;54893;49.864;19.084;2023-08-24T13:29:53;28.10;50.34
68109;SHT30;54893;49.864;19.084;2023-08-24T13:34:56;27.62;52.40
68109;SHT30;54893;49.864;19.084;2023-08-24T13:40:00;27.66;52.09
68109;SHT30;54893;49.864;19.084;2023-08-24T13:45:00;27.31;52.59
68109;SHT30;54893;49.864;19.084;2023-08-24T13:50:01;28.03;52.12
68109;SHT30;54893;49.864;19.084;2023-08-24T13:55:01;28.02;52.74
68109;SHT30;54893;49.864;19.084;2023-08-24T14:00:04;28.02;51.86
68109;SHT30;54893;49.864;19.084;2023-08-24T14:05:05;28.36;50.98
68109;SHT30;54893;49.864;19.084;2023-08-24T14:10:09;28.78;52.17
68109;SHT30;54893;49.864;19.084;2023-08-24T14:15:09;28.79;51.99
68109;SHT30;54893;49.864;19.084;2023-08-24T14:20:11;28.94;52.27
68109;SHT30;54893;49.864;19.084;2023-08-24T14:25:13;28.53;51.73
68109;SHT30;54893;49.864;19.084;2023-08-24T14:30:13;30.54;49.71
68109;SHT30;54893;49.864;19.084;2023-08-24T14:35:14;34.12;44.67
68109;SHT30;54893;49.864;19.084;2023-08-24T14:40:14;34.78;42.63
68109;SHT30;54893;49.864;19.084;2023-08-24T14:45:16;37.40;42.60
68109;SHT30;54893;49.864;19.084;2023-08-24T14:50:17;36.39;44.19
68109;SHT30;54893;49.864;19.084;2023-08-24T14:55:17;36.65;42.96
68109;SHT30;54893;49.864;19.084;2023-08-24T15:00:18;32.96;45.04
68109;SHT30;54893;49.864;19.084;2023-08-24T15:05:19;33.31;44.88
68109;SHT30;54893;49.864;19.084;2023-08-24T15:10:20;34.23;44.63
68109;SHT30;54893;49.864;19.084;2023-08-24T15:15:20;36.01;43.25
68109;SHT30;54893;49.864;19.084;2023-08-24T15:20:20;35.19;44.63
68109;SHT30;54893;49.864;19.084;2023-08-24T15:25:21;36.29;43.38
68109;SHT30;54893;49.864;19.084;2023-08-24T15:30:21;34.29;45.48
68109;SHT30;54893;49.864;19.084;2023-08-24T15:35:22;36.71;43.92
68109;SHT30;54893;49.864;19.084;2023-08-24T15:40:23;36.23;42.89
68109;SHT30;54893;49.864;19.084;2023-08-24T15:45:24;36.31;42.48
68109;SHT30;54893;49.864;19.084;2023-08-24T15:50:24;37.69;42.78
68109;SHT30;54893;49.864;19.084;2023-08-24T15:55:28;37.39;40.89
68109;SHT30;54893;49.864;19.084;2023-08-24T16:00:29;35.53;44.55
68109;SHT30;54893;49.864;19.084;2023-08-24T16:05:32;33.10;47.13
68109;SHT30;54893;49.864;19.084;2023-08-24T16:10:33;34.39;45.48
68109;SHT30;54893;49.864;19.084;2023-08-24T16:15:33;34.57;45.50
68109;SHT30;54893;49.864;19.084;2023-08-24T16:20:34;31.55;49.54
68109;SHT30;54893;49.864;19.084;2023-08-24T16:25:34;29.51;53.29
68109;SHT30;54893;49.864;19.084;2023-08-24T16:30:34;28.40;55.33
68109;SHT30;54893;49.864;19.084;2023-08-24T16:35:36;27.93;55.34
68109;SHT30;54893;49.864;19.084;2023-08-24T16:40:36;27.06;57.69
68109;SHT30;54893;49.864;19.084;2023-08-24T16:45:38;26.80;58.09
68109;SHT30;54893;49.864;19.084;2023-08-24T16:50:38;26.47;57.94
68109;SHT30;54893;49.864;19.084;2023-08-24T16:55:38;25.84;58.91
68109;SHT30;54893;49.864;19.084;2023-08-24T17:00:38;25.54;59.68
68109;SHT30;54893;49.864;19.084;2023-08-24T17:05:39;25.35;60.65
68109;SHT30;54893;49.864;19.084;2023-08-24T17:10:39;25.01;62.74
68109;SHT30;54893;49.864;19.084;2023-08-24T17:15:39;24.58;64.36
68109;SHT30;54893;49.864;19.084;2023-08-24T17:20:40;24.30;65.36
68109;SHT30;54893;49.864;19.084;2023-08-24T17:25:42;23.96;65.99
68109;SHT30;54893;49.864;19.084;2023-08-24T17:30:47;23.57;65.50
68109;SHT30;54893;49.864;19.084;2023-08-24T17:35:47;23.27;66.06
68109;SHT30;54893;49.864;19.084;2023-08-24T17:40:48;22.94;67.21
68109;SHT30;54893;49.864;19.084;2023-08-24T17:45:49;22.58;68.55
68109;SHT30;54893;49.864;19.084;2023-08-24T17:50:54;22.22;69.60
68109;SHT30;54893;49.864;19.084;2023-08-24T17:55:56;21.78;72.14
68109;SHT30;54893;49.864;19.084;2023-08-24T18:00:57;21.51;73.32
68109;SHT30;54893;49.864;19.084;2023-08-24T18:05:57;21.37;74.11
68109;SHT30;54893;49.864;19.084;2023-08-24T18:11:01;21.18;74.39
68109;SHT30;54893;49.864;19.084;2023-08-24T18:16:03;20.96;75.34
68109;SHT30;54893;49.864;19.084;2023-08-24T18:21:04;20.83;75.81
68109;SHT30;54893;49.864;19.084;2023-08-24T18:26:04;20.72;75.82
68109;SHT30;54893;49.864;19.084;2023-08-24T18:31:05;20.59;76.29
68109;SHT30;54893;49.864;19.084;2023-08-24T18:36:05;20.42;76.72
68109;SHT30;54893;49.864;19.084;2023-08-24T18:41:05;20.18;78.86
68109;SHT30;54893;49.864;19.084;2023-08-24T18:46:06;19.78;80.48
68109;SHT30;54893;49.864;19.084;2023-08-24T18:51:07;19.63;80.76
68109;SHT30;54893;49.864;19.084;2023-08-24T18:56:08;19.46;81.55
68109;SHT30;54893;49.864;19.084;2023-08-24T19:01:12;19.37;80.94
68109;SHT30;54893;49.864;19.084;2023-08-24T19:06:14;19.26;84.64
68109;SHT30;54893;49.864;19.084;2023-08-24T19:11:14;19.22;82.54
68109;SHT30;54893;49.864;19.084;2023-08-24T19:16:15;19.16;81.08
68109;SHT30;54893;49.864;19.084;2023-08-24T19:21:15;19.15;78.55
68109;SHT30;54893;49.864;19.084;2023-08-24T19:26:16;19.13;78.58
68109;SHT30;54893;49.864;19.084;2023-08-24T19:31:16;19.17;78.28
68109;SHT30;54893;49.864;19.084;2023-08-24T19:36:17;19.03;79.24
68109;SHT30;54893;49.864;19.084;2023-08-24T19:41:17;18.88;79.93
68109;SHT30;54893;49.864;19.084;2023-08-24T19:46:17;18.96;77.69
68109;SHT30;54893;49.864;19.084;2023-08-24T19:51:17;18.98;79.61
68109;SHT30;54893;49.864;19.084;2023-08-24T19:56:18;19.19;75.60
68109;SHT30;54893;49.864;19.084;2023-08-24T20:01:18;19.22;76.33
68109;SHT30;54893;49.864;19.084;2023-08-24T20:06:21;19.00;77.51
68109;SHT30;54893;49.864;19.084;2023-08-24T20:11:22;18.77;80.23
68109;SHT30;54893;49.864;19.084;2023-08-24T20:16:22;18.75;77.33
68109;SHT30;54893;49.864;19.084;2023-08-24T20:21:24;18.72;77.79
68109;SHT30;54893;49.864;19.084;2023-08-24T20:26:24;18.58;79.00
68109;SHT30;54893;49.864;19.084;2023-08-24T20:31:24;18.42;77.46
68109;SHT30;54893;49.864;19.084;2023-08-24T20:36:25;18.49;80.48
68109;SHT30;54893;49.864;19.084;2023-08-24T20:41:25;18.39;78.82
68109;SHT30;54893;49.864;19.084;2023-08-24T20:46:26;18.35;78.94
68109;SHT30;54893;49.864;19.084;2023-08-24T20:51:26;18.31;81.41
68109;SHT30;54893;49.864;19.084;2023-08-24T20:56:26;18.21;81.07
68109;SHT30;54893;49.864;19.084;2023-08-24T21:01:27;18.09;80.02
68109;SHT30;54893;49.864;19.084;2023-08-24T21:06:27;18.17;80.34
68109;SHT30;54893;49.864;19.084;2023-08-24T21:11:27;18.18;78.38
68109;SHT30;54893;49.864;19.084;2023-08-24T21:16:28;18.14;79.00
68109;SHT30;54893;49.864;19.084;2023-08-24T21:21:28;18.09;80.53
68109;SHT30;54893;49.864;19.084;2023-08-24T21:26:29;17.97;82.00
68109;SHT30;54893;49.864;19.084;2023-08-24T21:31:30;17.87;82.92
68109;SHT30;54893;49.864;19.084;2023-08-24T21:36:30;17.73;84.06
68109;SHT30;54893;49.864;19.084;2023-08-24T21:41:30;17.57;85.53
68109;SHT30;54893;49.864;19.084;2023-08-24T21:46:31;17.47;82.98
68109;SHT30;54893;49.864;19.084;2023-08-24T21:51:33;17.54;83.91
68109;SHT30;54893;49.864;19.084;2023-08-24T21:56:34;17.70;82.36
68109;SHT30;54893;49.864;19.084;2023-08-24T22:01:34;17.84;82.38
68109;SHT30;54893;49.864;19.084;2023-08-24T22:06:34;17.84;83.15
68109;SHT30;54893;49.864;19.084;2023-08-24T22:11:35;17.78;85.36
68109;SHT30;54893;49.864;19.084;2023-08-24T22:16:35;17.70;83.45
68109;SHT30;54893;49.864;19.084;2023-08-24T22:21:35;17.67;86.60
68109;SHT30;54893;49.864;19.084;2023-08-24T22:26:36;17.53;83.86
68109;SHT30;54893;49.864;19.084;2023-08-24T22:31:36;17.54;83.56
68109;SHT30;54893;49.864;19.084;2023-08-24T22:36:36;17.46;84.30
68109;SHT30;54893;49.864;19.084;2023-08-24T22:41:37;17.44;84.07
68109;SHT30;54893;49.864;19.084;2023-08-24T22:46:37;17.36;86.36
68109;SHT30;54893;49.864;19.084;2023-08-24T22:51:37;17.20;85.49
68109;SHT30;54893;49.864;19.084;2023-08-24T22:56:38;17.07;87.23
68109;SHT30;54893;49.864;19.084;2023-08-24T23:01:38;17.00;87.59
68109;SHT30;54893;49.864;19.084;2023-08-24T23:06:45;17.16;83.16
68109;SHT30;54893;49.864;19.084;2023-08-24T23:11:48;17.33;83.21
68109;SHT30;54893;49.864;19.084;2023-08-24T23:16:49;17.33;83.29
68109;SHT30;54893;49.864;19.084;2023-08-24T23:21:50;17.26;85.22
68109;SHT30;54893;49.864;19.084;2023-08-24T23:26:50;17.13;83.69
68109;SHT30;54893;49.864;19.084;2023-08-24T23:31:50;17.00;85.99
68109;SHT30;54893;49.864;19.084;2023-08-24T23:36:50;16.86;86.47
68109;SHT30;54893;49.864;19.084;2023-08-24T23:41:51;16.77;85.96
68109;SHT30;54893;49.864;19.084;2023-08-24T23:46:51;16.77;85.78
68109;SHT30;54893;49.864;19.084;2023-08-24T23:51:52;16.75;87.03
68109;SHT30;54893;49.864;19.084;2023-08-24T23:56:52;16.71;86.90
